Latest Weather Observations for Nullarbor

IDS60801

Issued at 3:01 am CDT Wednesday 19 February 2020 (issued every 10 minutes, with the page automatically refreshed every 10 minutes)

About weather observations | Map of weather stations | Latest weather observations for SA | Other Formats
Station Details ID: 018106 Name: NULLARBOR Lat: -31.45 Lon: 130.90 Height: 64.0 m
Data from the previous 72 hours. | See also: Recent months at Nullarbor
Date/Time
CDT
Temp
°C
App
Temp
°C
Dew
Point
°C
Rel
Hum
%
Delta-T
°C
Wind Press
QNH
hPa
Press
MSL
hPa
Rain since
9am
mm
Dir  Spd
km/h
Gust
km/h
Spd
kts
Gust
kts
19/03:00am 18.1 13.8 9.5 57 4.5 ESE 22 30 12 16 1020.4 1020.2 0.0
19/02:30am 18.2 13.6 9.5 57 4.6 ESE 24 30 13 16 1020.7 1020.5 0.0
19/02:00am 18.1 14.5 9.7 58 4.4 ESE 19 22 10 12 1021.1 1020.9 0.0
19/01:30am 18.3 13.1 10.2 59 4.3 SE 28 37 15 20 1021.4 1021.2 0.0
19/01:00am 18.4 13.7 10.5 60 4.3 SE 26 33 14 18 1021.7 1021.5 0.0
19/12:30am 18.4 14.4 10.5 60 4.2 SE 22 33 12 18 1021.7 1021.5 0.0
19/12:00am 18.4 13.7 10.5 60 4.2 SE 26 33 14 18 1021.9 1021.7 0.0
 
Date/Time
CDT
Temp
°C
App
Temp
°C
Dew
Point
°C
Rel
Hum
%
Delta-T
°C
Wind Press
QNH
hPa
Press
MSL
hPa
Rain since
9am
mm
Dir  Spd
km/h
Gust
km/h
Spd
kts
Gust
kts
18/11:30pm 18.2 13.7 10.1 59 4.3 SE 24 30 13 16 1022.0 1021.8 0.0
18/11:00pm 18.3 13.1 10.4 60 4.2 SE 28 37 15 20 1022.1 1021.9 0.0
18/10:30pm 18.2 13.8 10.3 60 4.2 SE 24 32 13 17 1022.2 1022.0 0.0
18/10:00pm 18.3 13.1 10.2 59 4.3 SSE 28 39 15 21 1021.8 1021.6 0.0
18/09:30pm 18.3 13.1 10.4 60 4.2 SE 28 35 15 19 1021.5 1021.3 0.0
18/09:00pm 18.6 13.8 10.4 59 4.4 SSE 26 35 14 19 1021.1 1020.9 0.0
18/08:30pm 18.5 13.7 10.3 59 4.4 SE 26 37 14 20 1020.9 1020.7 0.0
18/08:00pm 19.0 12.9 10.3 57 4.7 SE 33 46 18 25 1020.5 1020.3 0.0
18/07:30pm 19.6 13.7 10.6 56 4.9 SE 32 41 17 22 1020.6 1020.4 0.0
18/07:12pm 19.6 14.0 10.3 55 5.0 SSE 30 48 16 26 1020.6 1020.4 0.0
18/07:00pm 19.8 13.5 11.0 57 4.8 SSE 35 46 19 25 1020.4 1020.2 0.0
18/06:30pm 20.3 14.5 10.7 54 5.2 SE 32 46 17 25 1020.6 1020.4 0.0
18/06:00pm 20.2 13.9 10.9 55 5.1 SE 35 48 19 26 1020.5 1020.3 0.0
18/05:30pm 20.5 14.1 12.0 58 4.7 SSE 37 48 20 26 1020.5 1020.3 0.0
18/05:00pm 21.3 15.5 11.6 54 5.4 SSE 33 43 18 23 1020.7 1020.5 0.0
18/04:30pm 22.1 16.3 11.5 51 5.9 SSE 33 41 18 22 1020.7 1020.5 0.0
18/04:00pm 22.6 16.9 11.0 48 6.4 SSE 32 50 17 27 1021.0 1020.8 0.0
18/03:35pm 22.0 15.8 9.9 46 6.6 SSE 33 52 18 28 1021.2 1021.0 0.0
18/03:30pm 22.3 16.4 10.5 47 6.5 SSE 32 41 17 22 1021.3 1021.1 0.0
18/03:00pm 22.7 16.3 9.5 43 7.1 SSE 33 44 18 24 1021.6 1021.4 0.0
18/02:30pm 21.8 16.2 10.3 48 6.3 SE 30 39 16 21 1021.7 1021.5 0.0
18/02:00pm 21.5 15.2 10.9 51 5.8 SSE 35 46 19 25 1021.8 1021.6 0.0
18/01:47pm 21.9 15.6 9.8 46 6.6 SSE 33 52 18 28 1021.9 1021.7 0.0
18/01:30pm 21.8 15.6 10.0 47 6.4 SSE 33 48 18 26 1022.1 1021.9 0.0
18/01:00pm 21.5 14.9 10.0 48 6.2 SSE 35 48 19 26 1022.4 1022.2 0.0
18/12:30pm 20.7 14.8 10.5 52 5.5 SSE 32 48 17 26 1022.7 1022.5 0.0
18/12:00pm 20.6 14.5 10.4 52 5.5 SSE 33 46 18 25 1022.9 1022.7 0.0
18/11:30am 20.4 13.6 10.8 54 5.2 SSE 37 46 20 25 1023.1 1022.8 0.0
18/11:00am 21.0 15.1 11.3 54 5.4 SSE 33 43 18 23 1023.1 1022.8 0.0
18/10:30am 20.7 14.9 10.8 53 5.4 SSE 32 39 17 21 1022.7 1022.5 0.0
18/10:00am 19.7 14.3 12.2 62 4.2 SSE 32 41 17 22 1022.8 1022.6 0.0
18/09:30am 19.6 14.0 12.1 62 4.2 SSE 33 43 18 23 1022.4 1022.2 0.0
18/09:00am 19.3 13.8 11.8 62 4.1 SSE 32 39 17 21 1022.1 1021.9 0.0
18/08:30am 19.6 14.3 11.4 59 4.5 SSE 30 39 16 21 1021.6 1021.4 0.0
18/08:00am 18.7 15.1 10.5 59 4.4 SE 20 32 11 17 1021.4 1021.2 0.0
18/07:30am 17.8 13.6 9.9 60 4.2 SSE 22 28 12 15 1021.1 1020.9 0.0
18/07:00am 18.4 13.1 10.0 58 4.5 SSE 28 39 15 21 1020.8 1020.6 0.0
18/06:30am 18.3 13.1 10.2 59 4.3 SSE 28 35 15 19 1020.7 1020.5 0.0
18/06:00am 18.6 12.7 10.4 59 4.4 SSE 32 39 17 21 1020.3 1020.1 0.0
18/05:30am 18.7 14.9 11.3 62 4.0 SSE 22 28 12 15 1020.2 1020.0 0.0
18/05:00am 18.6 13.8 10.4 59 4.4 S 26 33 14 18 1020.1 1019.9 0.0
18/04:30am 18.7 14.6 11.5 63 3.9 SSE 24 37 13 20 1020.0 1019.8 0.0
18/04:00am 18.8 15.3 12.1 65 3.7 S 22 35 12 19 1020.0 1019.8 0.0
18/03:30am 18.8 14.4 11.6 63 4.0 SSE 26 33 14 18 1020.0 1019.8 0.0
18/03:00am 18.8 13.5 11.4 62 4.0 S 30 39 16 21 1020.1 1019.9 0.0
18/02:30am 19.1 14.1 12.1 64 3.9 S 30 41 16 22 1020.2 1020.0 0.0
18/02:00am 19.1 14.5 12.4 65 3.7 S 28 43 15 23 1020.3 1020.1 0.0
18/01:30am 19.2 14.4 12.9 67 3.5 S 30 41 16 22 1020.1 1019.9 0.0
18/01:00am 18.5 14.7 13.6 73 2.8 SSW 26 33 14 18 1020.2 1020.0 0.0
18/12:30am 18.5 13.6 12.5 68 3.3 SSW 30 41 16 22 1020.2 1020.0 0.0
18/12:00am 18.5 13.6 12.7 69 3.2 SSW 30 39 16 21 1020.3 1020.1 0.0
 
Date/Time
CDT
Temp
°C
App
Temp
°C
Dew
Point
°C
Rel
Hum
%
Delta-T
°C
Wind Press
QNH
hPa
Press
MSL
hPa
Rain since
9am
mm
Dir  Spd
km/h
Gust
km/h
Spd
kts
Gust
kts
17/11:30pm 19.0 14.0 13.4 70 3.2 SSW 32 43 17 23 1020.2 1020.0 0.0
17/11:00pm 19.1 14.7 14.1 73 2.9 SSW 30 39 16 21 1020.4 1020.2 0.0
17/10:30pm 19.4 14.9 13.8 70 3.2 SSW 30 39 16 21 1020.3 1020.1 0.0
17/10:00pm 19.6 15.4 14.6 73 2.9 SSW 30 43 16 23 1020.1 1019.9 0.0
17/09:30pm 19.9 15.9 15.1 74 2.8 SSW 30 39 16 21 1019.5 1019.3 0.0
17/09:00pm 19.8 15.2 16.1 79 2.2 S 35 46 19 25 1019.1 1018.9 0.0
17/08:30pm 20.1 16.0 16.5 80 2.2 SSW 33 43 18 23 1018.6 1018.4 0.0
17/08:00pm 20.5 15.7 16.7 79 2.3 SSW 37 48 20 26 1018.0 1017.8 0.0
17/07:30pm 21.2 16.2 17.0 77 2.6 SSW 39 50 21 27 1017.5 1017.3 0.0
17/07:00pm 22.0 17.5 17.4 75 2.8 SSW 37 46 20 25 1017.2 1017.0 0.0
17/06:30pm 21.3 16.7 17.9 81 2.1 SSW 39 52 21 28 1016.8 1016.6 0.0
17/06:00pm 23.1 18.3 17.6 71 3.4 SSW 39 50 21 27 1016.7 1016.5 0.0
17/05:30pm 22.4 17.0 18.0 76 2.7 SSW 43 54 23 29 1016.3 1016.1 0.0
17/05:00pm 22.5 17.0 17.6 74 3.0 SSW 43 54 23 29 1016.1 1015.9 0.0
17/04:30pm 24.0 19.4 18.0 69 3.8 SSW 39 48 21 26 1016.0 1015.8 0.0
17/04:00pm 24.4 19.3 17.6 66 4.3 SSW 41 52 22 28 1015.9 1015.7 0.0
17/03:58pm 24.4 19.2 17.4 65 4.4 SSW 41 52 22 28 1015.9 1015.7 0.0
17/03:40pm 23.8 18.6 17.5 68 3.9 SSW 41 50 22 27 1015.9 1015.7 0.0
17/03:38pm 24.0 18.8 17.5 67 4.1 SSW 41 50 22 27 1016.0 1015.8 0.0
17/03:30pm 23.9 18.8 17.6 68 3.9 SSW 41 54 22 29 1015.9 1015.7 0.0
17/03:00pm 25.1 20.4 17.8 64 4.6 SSW 39 48 21 26 1015.8 1015.6 0.0
17/02:48pm 23.5 19.1 18.4 73 3.2 SW 39 50 21 27 1015.8 1015.6 0.0
17/02:30pm 24.0 19.0 18.0 69 3.8 SW 41 54 22 29 1015.7 1015.5 0.0
17/02:00pm 23.7 19.1 17.9 70 3.6 SSW 39 50 21 27 1015.8 1015.6 0.0
17/01:56pm 24.3 19.7 18.0 68 4.0 SSW 39 50 21 27 1015.7 1015.5 0.0
17/01:41pm 24.4 19.9 18.3 69 3.9 SW 39 50 21 27 1015.5 1015.3 0.0
17/01:30pm 23.4 18.7 17.8 71 3.5 SW 39 50 21 27 1015.6 1015.4 0.0
17/01:23pm 23.4 19.1 17.8 71 3.5 SW 37 50 20 27 1015.6 1015.4 0.0
17/01:19pm 24.0 19.5 18.2 70 3.7 SW 39 52 21 28 1015.5 1015.3 0.0
17/01:06pm 24.3 20.2 18.2 68 3.8 SW 37 56 20 30 1015.5 1015.3 0.0
17/01:00pm 23.4 18.0 17.8 71 3.5 SW 43 56 23 30 1015.5 1015.3 0.0
17/12:46pm 23.9 19.7 18.1 70 3.6 SW 37 48 20 26 1015.4 1015.2 0.0
17/12:30pm 23.2 19.5 18.3 74 3.1 SW 35 46 19 25 1015.3 1015.1 0.0
17/12:00pm 23.0 18.9 18.3 75 3.0 SW 37 46 20 25 1015.1 1014.9 0.0
17/11:30am 23.4 19.1 18.7 75 3.0 SW 39 50 21 27 1014.6 1014.3 0.0
17/11:11am 23.6 20.1 18.7 74 3.1 SW 35 46 19 25 1014.3 1014.0 0.0
17/11:00am 24.2 20.9 19.3 74 3.1 SW 35 48 19 26 1014.1 1013.8 0.0
17/10:30am 23.2 20.1 19.6 80 2.3 WSW 35 44 19 24 1014.1 1013.8 0.0
17/10:09am 23.6 20.4 19.5 78 2.6 WSW 35 46 19 25 1013.9 1013.6 0.0
17/10:00am 23.3 20.8 19.7 80 2.3 WSW 32 44 17 24 1013.8 1013.5 0.0
17/09:53am 23.1 20.6 19.7 81 2.2 WSW 32 43 17 23 1013.8 1013.5 0.0
17/09:39am 22.9 19.8 19.7 82 2.1 WSW 35 44 19 24 1013.6 1013.3 0.0
17/09:30am 22.8 20.2 19.8 83 1.9 WSW 33 44 18 24 1013.4 1013.1 0.0
17/09:00am 22.5 21.4 20.2 87 1.5 WSW 26 33 14 18 1013.1 1012.8 0.0
17/08:30am 22.0 21.3 20.3 90 1.1 WSW 24 33 13 18 1012.4 1012.1 0.0
17/08:00am 21.9 21.4 19.1 84 1.8 WSW 20 30 11 16 1011.9 1011.6 0.0
17/07:30am 21.8 20.7 18.6 82 2.0 W 22 28 12 15 1011.4 1011.1 0.0
17/07:00am 22.1 21.1 17.9 77 2.6 W 20 32 11 17 1010.9 1010.6 0.0
17/06:30am 22.6 20.4 14.4 60 4.8 W 19 24 10 13 1010.6 1010.3 0.0
17/06:00am 23.5 20.6 8.0 37 8.2 W 13 19 7 10 1010.2 1009.9 0.0
17/05:30am 24.2 20.0 8.2 36 8.5 W 20 33 11 18 1009.9 1009.6 0.0
17/05:00am 22.9 19.4 8.6 40 7.6 NE 17 20 9 11 1008.3 1008.0 0.0
17/04:30am 22.1 19.0 8.9 43 7.1 NNE 15 17 8 9 1008.6 1008.3 0.0
17/04:00am 22.5 19.1 9.3 43 7.1 NE 17 19 9 10 1008.6 1008.3 0.0
17/03:30am 22.3 19.0 9.5 44 6.9 NE 17 20 9 11 1008.5 1008.2 0.0
17/03:00am 22.1 18.8 9.6 45 6.8 NE 17 19 9 10 1008.6 1008.3 0.0
17/02:30am 22.3 19.3 10.5 47 6.5 NE 17 19 9 10 1008.9 1008.6 0.0
17/02:00am 21.9 19.4 12.2 54 5.5 NE 17 19 9 10 1008.9 1008.6 0.0
17/01:30am 21.6 19.7 13.0 58 4.9 ENE 15 17 8 9 1009.1 1008.8 0.0
17/01:00am 21.3 19.6 13.7 62 4.4 E 15 15 8 8 1009.5 1009.2 0.0
17/12:30am 21.7 20.2 14.1 62 4.4 ENE 15 17 8 9 1009.7 1009.4 0.0
17/12:00am 22.2 21.2 14.6 62 4.5 ENE 13 17 7 9 1009.6 1009.3 0.0
 
Date/Time
CDT
Temp
°C
App
Temp
°C
Dew
Point
°C
Rel
Hum
%
Delta-T
°C
Wind Press
QNH
hPa
Press
MSL
hPa
Rain since
9am
mm
Dir  Spd
km/h
Gust
km/h
Spd
kts
Gust
kts
16/11:30pm 23.3 22.3 15.6 62 4.6 ENE 15 20 8 11 1009.9 1009.6 0.0
16/11:00pm 22.7 22.0 15.5 64 4.3 E 13 15 7 8 1010.1 1009.8 0.0
16/10:30pm 22.9 22.1 15.0 61 4.7 ESE 13 15 7 8 1010.5 1010.2 0.0
16/10:00pm 23.5 21.9 12.8 51 6.2 ESE 13 17 7 9 1010.2 1009.9 0.0
16/09:30pm 24.5 22.5 11.5 44 7.4 E 13 15 7 8 1009.7 1009.4 0.0
16/09:00pm 25.4 22.7 11.6 42 7.9 E 17 19 9 10 1009.4 1009.1 0.0
16/08:30pm 26.4 23.4 12.1 41 8.3 E 19 24 10 13 1009.4 1009.1 0.0
16/08:00pm 27.3 23.8 12.1 39 8.8 E 22 28 12 15 1009.3 1009.0 0.0
16/07:30pm 27.3 23.5 13.6 43 8.1 E 26 33 14 18 1009.4 1009.1 0.0
16/07:00pm 27.7 22.8 13.6 42 8.4 ESE 32 37 17 20 1009.7 1009.4 0.0
16/06:30pm 28.3 23.4 13.8 41 8.7 E 32 43 17 23 1009.8 1009.5 0.0
16/06:00pm 28.9 24.1 13.9 39 9.0 ESE 32 39 17 21 1010.2 1009.9 0.0
16/05:30pm 29.5 24.9 14.5 40 9.1 SE 32 41 17 22 1010.5 1010.2 0.0
16/05:00pm 29.5 24.2 14.1 39 9.3 SE 35 41 19 22 1010.6 1010.3 0.0
16/04:30pm 30.9 26.0 13.7 35 10.4 ESE 32 39 17 21 1010.6 1010.3 0.0
16/04:22pm 30.4 25.4 14.1 37 9.9 SE 33 39 18 21 1010.6 1010.3 0.0
16/04:07pm 30.8 25.0 14.0 36 10.2 SE 37 44 20 24 1010.7 1010.4 0.0
16/04:00pm 30.5 25.0 13.7 35 10.1 SE 35 43 19 23 1010.7 1010.4 0.0
16/03:30pm 34.2 29.5 12.0 26 13.2 ESE 28 41 15 22 1010.8 1010.5 0.0
16/03:20pm 33.6 29.9 12.6 28 12.6 E 24 37 13 20 1010.8 1010.5 0.0
16/03:00pm 34.9 30.8 4.4 15 16.2 NE 15 26 8 14 1011.2 1010.9 0.0
16/02:30pm 34.5 30.1 5.0 16 15.8 N 17 26 9 14 1011.6 1011.3 0.0
16/02:00pm 33.5 29.0 5.9 18 14.9 NE 19 28 10 15 1011.7 1011.4 0.0
16/01:30pm 32.3 27.7 5.7 19 14.2 NNE 19 26 10 14 1012.4 1012.1 0.0
16/01:00pm 31.9 27.4 6.2 20 13.8 NNE 19 26 10 14 1012.7 1012.4 0.0
16/12:30pm 30.2 27.1 10.2 29 11.4 NE 17 26 9 14 1013.2 1012.9 0.0
16/12:00pm 28.3 25.8 12.2 37 9.4 NNE 17 28 9 15 1013.8 1013.5 0.0
16/11:30am 26.3 24.4 14.1 47 7.3 NE 17 24 9 13 1014.1 1013.8 0.0
16/11:00am 24.9 22.6 14.7 53 6.1 NNE 20 30 11 16 1013.9 1013.6 0.0
16/10:30am 23.3 21.8 15.4 61 4.7 NE 17 22 9 12 1014.5 1014.2 0.0
16/10:00am 21.2 19.4 15.5 70 3.4 ENE 19 24 10 13 1014.6 1014.3 0.0
16/09:30am 20.1 18.0 16.1 78 2.4 E 22 28 12 15 1014.7 1014.5 0.0
16/09:00am 17.9 16.9 17.9 100 0.0 E 20 28 11 15 1014.7 1014.5 0.0
16/08:34am 16.1 16.0 16.1 100 0.0 E 11 17 6 9 1014.7 1014.5 0.0
16/08:30am 15.9 15.8 15.9 100 0.0 E 11 15 6 8 1014.8 1014.6 0.0
16/08:00am 14.4 13.3 14.4 100 0.0 ENE 13 17 7 9 1014.2 1013.9 0.0
16/07:30am 13.0 11.5 13.0 100 0.0 ENE 13 15 7 8 1013.9 1013.6 0.0
16/07:00am 13.2 11.7 13.2 100 0.0 ENE 13 13 7 7 1013.5 1013.2 0.0
16/06:30am 13.4 12.0 13.4 100 0.0 E 13 17 7 9 1013.1 1012.8 0.0
16/06:14am 13.1 11.2 13.1 100 0.0 E 15 17 8 9 1013.1 1012.8 0.0
16/06:00am 13.2 11.7 13.2 100 0.0 E 13 15 7 8 1013.3 1013.0 0.0
16/05:30am 13.0 11.5 13.0 100 0.0 E 13 17 7 9 1013.2 1012.9 0.0
16/05:00am 13.1 11.6 13.1 100 0.0 E 13 17 7 9 1013.3 1013.0 0.0
16/04:30am 13.3 11.9 13.3 100 0.0 E 13 15 7 8 1013.1 1012.8 0.0
16/04:00am 13.6 12.7 13.6 100 0.0 ESE 11 13 6 7 1013.4 1013.1 0.0
16/03:30am 14.2 13.8 14.0 99 0.1 E 9 11 5 6 1013.6 1013.3 0.0

Other formats

Comma delimited format used in spreadsheet applications
http://www.bom.gov.au/fwo/IDS60801/IDS60801.94651.axf

JavaScript Object Notation format (JSON) in row-major order
http://www.bom.gov.au/fwo/IDS60801/IDS60801.94651.json

Data quality

Most of these data are generated automatically and are frequently updated. Quality checks on data are not normally performed. It is possible for incorrect values to appear. Refer to information at About Latest Weather Observations and please check the disclaimer before using these data.